Fugaku Maru — JH3428 — position and weather

sailwx.info

Track history (hours):
 
Tides and Currents Weather Stations Pressure Air Temp Water Temp Dewpoint Dewpoint Depression Visibility Wind Speed Wind Dir Waves Ship Positions

Fugaku Maru

Last reported at 2015-Apr-28 19:33 UTC. Time now 2015-Apr-28 19:50 UTC.
Position N 34°54' E 140°04'.

Length 165 m; draft 7.2 m.

Type: Cargo ship. MMSI: 431200176.

Date/timePositionNaut miles runAvg speedWind from/ knotsBaromVisibWave heightAir tempDewpointWater temp
2015-Apr-28 19:33N 34°54' E 140°04'2019.8
2015-Apr-28 18:33N 35°05' E 140°24'1818.0
2015-Apr-28 17:32N 35°17' E 140°40'1818.3
2015-Apr-28 16:33N 35°33' E 140°51'2019.6
2015-Apr-28 15:33N 35°51' E 141°00'2219.9
2015-Apr-28 14:26N 36°13' E 141°05'2019.7
2015-Apr-28 13:25N 36°33' E 141°09'1720.2
2015-Apr-28 12:33N 36°50' E 141°13'2020.3
2015-Apr-28 11:33N 37°10' E 141°18'  
2015-Apr-26 01:09N 36°09' E 141°01'1219.6
2015-Apr-26 00:30N 35°57' E 140°59'1919.5
2015-Apr-25 23:31N 35°38' E 140°56'1919.7
2015-Apr-25 22:33N 35°22' E 140°43'2619.8
2015-Apr-25 21:14N 35°03' E 140°21'1319.1
2015-Apr-25 20:33N 34°55' E 140°08'2119.2
2015-Apr-25 19:29N 34°45' E 139°46'1 0.1
2015-Apr-24 20:32N 34°45' E 139°45'2020.6
2015-Apr-24 19:33N 34°53' E 140°07'2919.3
2015-Apr-24 18:04N 35°10' E 140°36'1018.3
2015-Apr-24 17:31N 35°19' E 140°41'1918.3
2015-Apr-24 16:30N 35°35' E 140°53'67 1.5
2015-Apr-22 19:33N 36°41' E 141°04'2020.0
2015-Apr-22 18:32N 36°21' E 141°04'2019.8
2015-Apr-22 17:31N 36°01' E 141°01'1919.7
2015-Apr-22 16:34N 35°42' E 140°59'2019.4
2015-Apr-22 15:33N 35°26' E 140°46'2321.5
2015-Apr-22 14:30N 35°07' E 140°30'1919.9
2015-Apr-22 13:33N 34°55' E 140°12'2019.7
2015-Apr-22 12:33N 34°46' E 139°51'6719.3
2015-Apr-22 09:06N 34°30' E 138°32'45 1.4
2015-Apr-21 01:18N 34°39' E 139°26'1215.9
2015-Apr-21 00:33N 34°44' E 139°39'1615.3
2015-Apr-20 23:30N 34°52' E 139°57'1313.9
2015-Apr-20 22:33N 34°59' E 140°10'1413.9
2015-Apr-20 21:32N 35°07' E 140°24'1612.5
2015-Apr-20 20:16N 35°17' E 140°39'912.8
2015-Apr-20 19:33N 35°24' E 140°46'  
Track history (hours):
 
Tides and Currents Weather Stations Pressure Air Temp Water Temp Dewpoint Dewpoint Depression Visibility Wind Speed Wind Dir Waves Ship Positions

Fugaku Maru

Last reported at 2015-Apr-28 19:33 UTC. Time now 2015-Apr-28 19:50 UTC.
Position N 34°54' E 140°04'.

Length 165 m; draft 7.2 m.

Type: Cargo ship. MMSI: 431200176.

Date/timePositionNaut miles runAvg speedWind from/ knotsBaromVisibWave heightAir tempDewpointWater temp
2015-Apr-28 19:33N 34°54' E 140°04'2019.8
2015-Apr-28 18:33N 35°05' E 140°24'1818.0
2015-Apr-28 17:32N 35°17' E 140°40'1818.3
2015-Apr-28 16:33N 35°33' E 140°51'2019.6
2015-Apr-28 15:33N 35°51' E 141°00'2219.9
2015-Apr-28 14:26N 36°13' E 141°05'2019.7
2015-Apr-28 13:25N 36°33' E 141°09'1720.2
2015-Apr-28 12:33N 36°50' E 141°13'2020.3
2015-Apr-28 11:33N 37°10' E 141°18'  
2015-Apr-26 01:09N 36°09' E 141°01'1219.6
2015-Apr-26 00:30N 35°57' E 140°59'1919.5
2015-Apr-25 23:31N 35°38' E 140°56'1919.7
2015-Apr-25 22:33N 35°22' E 140°43'2619.8
2015-Apr-25 21:14N 35°03' E 140°21'1319.1
2015-Apr-25 20:33N 34°55' E 140°08'2119.2
2015-Apr-25 19:29N 34°45' E 139°46'1 0.1
2015-Apr-24 20:32N 34°45' E 139°45'2020.6
2015-Apr-24 19:33N 34°53' E 140°07'2919.3
2015-Apr-24 18:04N 35°10' E 140°36'1018.3
2015-Apr-24 17:31N 35°19' E 140°41'1918.3
2015-Apr-24 16:30N 35°35' E 140°53'67 1.5
2015-Apr-22 19:33N 36°41' E 141°04'2020.0
2015-Apr-22 18:32N 36°21' E 141°04'2019.8
2015-Apr-22 17:31N 36°01' E 141°01'1919.7
2015-Apr-22 16:34N 35°42' E 140°59'2019.4
2015-Apr-22 15:33N 35°26' E 140°46'2321.5
2015-Apr-22 14:30N 35°07' E 140°30'1919.9
2015-Apr-22 13:33N 34°55' E 140°12'2019.7
2015-Apr-22 12:33N 34°46' E 139°51'6719.3
2015-Apr-22 09:06N 34°30' E 138°32'45 1.4
2015-Apr-21 01:18N 34°39' E 139°26'1215.9
2015-Apr-21 00:33N 34°44' E 139°39'1615.3
2015-Apr-20 23:30N 34°52' E 139°57'1313.9
2015-Apr-20 22:33N 34°59' E 140°10'1413.9
2015-Apr-20 21:32N 35°07' E 140°24'1612.5
2015-Apr-20 20:16N 35°17' E 140°39'912.8
2015-Apr-20 19:33N 35°24' E 140°46'  

Dump ship's entire track history